Time;durP1;ratioP1;P1;durP2;ratioP2;P2;SDS_P1;SDS_P2;PMS_P1;PMS_P2;Temp;Humidity;BMP_temperature;BMP_pressure;BME280_temperature;BME280_humidity;BME280_pressure;Samples;Min_cycle;Max_cycle;Signal;HPM_P1;HPM_P2
2022/03/28 00:00:05;;;;;;;;;35.50;29.75;;;;;14.52;99.37;102016.97;4987076;28;45255;-76
2022/03/28 00:02:31;;;;;;;;;31.00;27.75;;;;;14.50;97.73;102020.78;4990789;28;45144;-75
2022/03/28 00:04:57;;;;;;;;;38.00;32.25;;;;;14.49;97.73;102016.28;4989109;28;45133;-76
2022/03/28 00:07:22;;;;;;;;;43.50;30.25;;;;;14.47;100.00;102015.47;4989538;28;45171;-77
2022/03/28 00:09:48;;;;;;;;;28.75;27.50;;;;;14.45;100.00;102012.84;4989435;28;45436;-77
2022/03/28 00:12:13;;;;;;;;;33.50;29.00;;;;;14.32;100.00;101989.06;4988844;28;45145;-76
2022/03/28 00:14:38;;;;;;;;;30.50;28.00;;;;;14.28;100.00;101981.03;4989900;28;45632;-75
2022/03/28 00:17:04;;;;;;;;;32.25;31.00;;;;;14.39;100.00;102002.25;4988663;28;45178;-80
2022/03/28 00:19:29;;;;;;;;;31.75;29.50;;;;;14.36;100.00;101997.00;4989506;28;46048;-80
2022/03/28 00:21:56;;;;;;;;;32.25;31.00;;;;;13.72;100.00;101892.50;4988471;28;45126;-79
2022/03/28 00:24:22;;;;;;;;;32.00;30.25;;;;;13.97;100.00;101938.34;4987684;28;45214;-79
2022/03/28 00:26:47;;;;;;;;;35.25;27.50;;;;;13.84;100.00;101920.03;4988026;28;45356;-80
2022/03/28 00:29:12;;;;;;;;;32.00;29.75;;;;;14.06;100.00;101963.34;4983959;28;45298;-80
2022/03/28 00:31:38;;;;;;;;;33.50;28.75;;;;;14.21;100.00;101985.16;4987223;28;45318;-83
2022/03/28 00:34:03;;;;;;;;;35.25;30.25;;;;;14.26;100.00;101991.22;4966751;28;45204;-81
2022/03/28 00:36:28;;;;;;;;;34.25;30.75;;;;;14.26;100.00;101995.81;4981694;28;45157;-79
2022/03/28 00:38:54;;;;;;;;;37.50;31.00;;;;;14.10;100.00;101968.53;4987134;28;46113;-79
2022/03/28 00:41:19;;;;;;;;;33.00;28.25;;;;;13.96;100.00;101938.44;4988631;28;45023;-82
2022/03/28 00:44:05;;;;;;;;;29.00;24.75;;;;;14.22;100.00;101983.28;4990281;28;45097;-78
2022/03/28 00:46:32;;;;;;;;;27.75;26.75;;;;;13.96;100.00;101941.16;4990493;28;45009;-80
2022/03/28 00:48:58;;;;;;;;;29.75;28.25;;;;;14.20;100.00;101983.41;4990266;28;45132;-77
2022/03/28 00:51:24;;;;;;;;;33.75;32.50;;;;;14.18;100.00;101979.88;4990334;28;45411;-81
2022/03/28 00:53:50;;;;;;;;;33.50;30.00;;;;;14.13;100.00;101968.31;4989106;28;45157;-80
2022/03/28 00:56:16;;;;;;;;;36.00;30.75;;;;;13.86;100.00;101939.97;4988900;28;45515;-79
2022/03/28 00:58:42;;;;;;;;;33.50;30.75;;;;;14.14;100.00;101977.41;4990509;28;45145;-78
2022/03/28 01:01:11;;;;;;;;;32.75;27.75;;;;;13.55;100.00;101883.59;4990291;28;45088;-80
2022/03/28 01:03:37;;;;;;;;;33.50;30.00;;;;;13.54;100.00;101888.19;4990348;28;45429;-81
2022/03/28 01:06:04;;;;;;;;;37.00;30.75;;;;;14.07;100.00;101971.44;4991356;28;45225;-77
2022/03/28 01:08:31;;;;;;;;;32.50;28.25;;;;;13.97;100.00;101962.94;4991031;28;45626;-78
2022/03/28 01:11:03;;;;;;;;;36.00;30.00;;;;;13.48;100.00;101877.63;4987989;28;45158;-77
2022/03/28 01:13:28;;;;;;;;;37.75;33.00;;;;;13.89;100.00;101945.25;4990430;28;45201;-79
2022/03/28 01:15:54;;;;;;;;;34.75;30.75;;;;;13.88;100.00;101944.38;4990244;28;45265;-81
2022/03/28 01:18:19;;;;;;;;;32.00;30.25;;;;;13.15;100.00;101815.88;4990450;28;45496;-78
2022/03/28 01:20:45;;;;;;;;;40.00;32.50;;;;;13.98;100.00;101966.56;4985742;28;45158;-80
2022/03/28 01:23:11;;;;;;;;;42.75;35.25;;;;;13.61;100.00;101897.75;4972234;28;45233;-77
2022/03/28 01:25:36;;;;;;;;;42.25;32.50;;;;;13.75;100.00;101927.84;4988600;28;45138;-78
2022/03/28 01:28:03;;;;;;;;;39.00;30.25;;;;;13.94;100.00;101954.94;4989877;28;45187;-79
2022/03/28 01:30:30;;;;;;;;;42.00;33.75;;;;;13.91;100.00;101951.50;4989426;28;45575;-80
2022/03/28 01:32:57;;;;;;;;;43.25;29.75;;;;;13.90;100.00;101953.38;4989606;28;45129;-77
2022/03/28 01:35:38;;;;;;;;;42.75;34.00;;;;;13.20;100.00;101832.84;4989270;28;45565;-81
2022/03/28 01:38:15;;;;;;;;;33.50;31.00;;;;;13.58;100.00;101894.31;4989167;28;46032;-81
2022/03/28 01:40:49;;;;;;;;;38.25;34.00;;;;;13.85;100.00;101950.03;4989227;28;45157;-81
2022/03/28 01:43:15;;;;;;;;;38.00;33.25;;;;;13.84;100.00;101948.28;4985261;28;45102;-81
2022/03/28 01:45:41;;;;;;;;;34.75;31.00;;;;;12.97;100.00;101798.72;4986202;28;45292;-78
2022/03/28 01:48:07;;;;;;;;;36.50;33.25;;;;;13.49;100.00;101884.88;4989186;28;45062;-82
2022/03/28 01:50:33;;;;;;;;;41.00;36.25;;;;;13.48;100.00;101886.72;4988522;28;45539;-79
2022/03/28 01:52:59;;;;;;;;;46.00;34.75;;;;;13.13;100.00;101822.41;4985943;28;45213;-82
2022/03/28 01:55:25;;;;;;;;;44.00;35.00;;;;;13.23;100.00;101848.22;4989220;28;45287;-81
2022/03/28 01:57:51;;;;;;;;;48.75;37.00;;;;;13.79;100.00;101936.75;4989955;28;45893;-80
2022/03/28 02:00:19;;;;;;;;;38.50;34.50;;;;;13.65;100.00;101912.13;4989861;28;45165;-78
2022/03/28 02:02:48;;;;;;;;;42.50;38.00;;;;;13.68;100.00;101922.84;4988722;28;45246;-82
2022/03/28 02:05:15;;;;;;;;;37.00;34.50;;;;;13.65;100.00;101921.19;4989762;28;45210;-82
2022/03/28 02:07:46;;;;;;;;;45.25;36.00;;;;;13.21;100.00;101841.91;4988518;28;47653;-81
2022/03/28 02:10:14;;;;;;;;;47.75;39.50;;;;;13.66;100.00;101925.69;4989378;28;45022;-83
2022/03/28 02:12:40;;;;;;;;;49.00;38.25;;;;;13.67;100.00;101921.09;4989378;28;45043;-80
2022/03/28 02:15:07;;;;;;;;;48.75;34.75;;;;;13.61;100.00;101914.16;4989849;28;45130;-80
2022/03/28 02:17:34;;;;;;;;;49.00;38.00;;;;;13.70;100.00;101942.78;4989619;28;45891;-80
2022/03/28 02:20:00;;;;;;;;;49.25;39.75;;;;;13.67;100.00;101932.91;4989578;28;45106;-79
2022/03/28 02:22:25;;;;;;;;;48.75;39.50;;;;;13.67;100.00;101929.28;4989088;28;45507;-78
2022/03/28 02:24:51;;;;;;;;;35.75;34.00;;;;;13.38;100.00;101880.06;4990071;28;44948;-81
2022/03/28 02:27:16;;;;;;;;;39.25;34.00;;;;;13.07;100.00;101834.53;4989772;28;45682;-80
2022/03/28 02:29:41;;;;;;;;;49.00;39.75;;;;;13.63;100.00;101933.19;4990030;28;45083;-81
2022/03/28 02:32:07;;;;;;;;;44.50;35.50;;;;;12.74;100.00;101771.97;4989492;28;45166;-81
2022/03/28 02:34:33;;;;;;;;;46.75;36.75;;;;;13.26;100.00;101858.94;4989794;28;45234;-82
2022/03/28 02:36:58;;;;;;;;;49.75;38.00;;;;;13.55;100.00;101913.66;4989291;28;45605;-82
2022/03/28 02:39:24;;;;;;;;;47.75;37.50;;;;;13.35;100.00;101882.97;4990200;28;45462;-80
2022/03/28 02:41:49;;;;;;;;;46.00;36.00;;;;;13.60;100.00;101919.72;4989466;28;45094;-81
2022/03/28 02:44:15;;;;;;;;;44.75;37.00;;;;;13.04;100.00;101823.81;4988793;28;45098;-80
2022/03/28 02:46:40;;;;;;;;;52.50;40.50;;;;;13.59;100.00;101917.97;4989483;28;45937;-81
2022/03/28 02:49:06;;;;;;;;;49.00;39.00;;;;;13.52;100.00;101911.09;4988809;28;45208;-81
2022/03/28 02:51:31;;;;;;;;;49.75;39.00;;;;;13.43;100.00;101886.13;4989435;28;45039;-78
2022/03/28 02:53:56;;;;;;;;;35.75;31.50;;;;;13.56;100.00;101904.47;4988624;28;45633;-82
2022/03/28 02:56:22;;;;;;;;;51.25;39.00;;;;;13.55;100.00;101908.19;4970701;28;52053;-80
2022/03/28 02:58:48;;;;;;;;;43.00;37.00;;;;;13.38;100.00;101880.06;4988463;28;45024;-81
2022/03/28 03:01:14;;;;;;;;;51.25;38.50;;;;;13.29;100.00;101850.56;4971357;28;45274;-81
2022/03/28 03:03:40;;;;;;;;;53.75;38.75;;;;;13.51;100.00;101885.63;4987451;28;45103;-82
2022/03/28 03:06:05;;;;;;;;;49.75;39.00;;;;;13.49;100.00;101884.88;4987412;28;45952;-81
2022/03/28 03:08:30;;;;;;;;;42.25;36.75;;;;;12.94;100.00;101798.94;4987075;28;45168;-78
2022/03/28 03:10:55;;;;;;;;;47.25;40.00;;;;;13.47;100.00;101878.59;4989444;28;45111;-77
2022/03/28 03:13:21;;;;;;;;;44.50;35.00;;;;;12.97;100.00;101811.50;4986871;28;45182;-79
2022/03/28 03:15:46;;;;;;;;;42.75;37.00;;;;;13.17;100.00;101840.34;4968675;28;46113;-77
2022/03/28 03:18:12;;;;;;;;;49.50;37.00;;;;;13.31;100.00;101858.66;4987882;28;45333;-79
2022/03/28 03:20:37;;;;;;;;;52.00;41.00;;;;;13.26;100.00;101850.75;4988236;28;45182;-82
2022/03/28 03:23:03;;;;;;;;;50.75;41.25;;;;;13.33;100.00;101863.06;4977976;28;45487;-80
2022/03/28 03:25:28;;;;;;;;;60.75;43.75;;;;;13.26;100.00;101858.94;4987994;28;45991;-81
2022/03/28 03:27:54;;;;;;;;;56.00;42.75;;;;;12.66;100.00;101753.31;4988461;28;45118;-79
2022/03/28 03:30:20;;;;;;;;;47.75;38.75;;;;;13.21;100.00;101853.75;4988310;28;45257;-80
2022/03/28 03:32:46;;;;;;;;;53.25;43.00;;;;;13.18;100.00;101851.19;4988409;28;45079;-82
2022/03/28 03:35:11;;;;;;;;;55.25;42.75;;;;;13.15;100.00;101843.16;4988491;28;45563;-80
2022/03/28 03:37:38;;;;;;;;;51.50;39.25;;;;;13.14;100.00;101846.00;4988555;28;45375;-81
2022/03/28 03:40:05;;;;;;;;;57.50;43.00;;;;;12.50;100.00;101743.41;4988774;28;45424;-82
2022/03/28 03:42:33;;;;;;;;;49.75;41.00;;;;;13.02;100.00;101835.78;4989013;28;45021;-82
2022/03/28 03:45:00;;;;;;;;;56.75;45.00;;;;;13.07;100.00;101845.47;4972411;28;46561;-80
2022/03/28 03:47:26;;;;;;;;;51.25;42.75;;;;;12.81;100.00;101799.75;5000700;28;45071;-78
2022/03/28 03:49:52;;;;;;;;;59.50;42.50;;;;;13.07;100.00;101848.19;4998766;28;44853;-79
2022/03/28 03:52:17;;;;;;;;;54.25;43.00;;;;;12.49;100.00;101747.09;5000062;28;45320;-78
2022/03/28 03:54:43;;;;;;;;;56.25;43.00;;;;;13.21;100.00;101874.69;4981121;28;46087;-83
2022/03/28 03:57:08;;;;;;;;;56.25;42.00;;;;;13.18;100.00;101870.31;4998227;28;44987;-79
2022/03/28 03:59:34;;;;;;;;;58.75;45.00;;;;;12.16;100.00;101694.44;4995508;28;45475;-80
2022/03/28 04:02:00;;;;;;;;;52.75;42.50;;;;;13.17;100.00;101871.25;4996241;28;45007;-77
2022/03/28 04:04:25;;;;;;;;;53.50;42.25;;;;;12.83;100.00;101819.66;4994650;28;45666;-82
2022/03/28 04:06:51;;;;;;;;;53.75;44.25;;;;;12.65;100.00;101787.00;4992584;28;45099;-81
2022/03/28 04:09:16;;;;;;;;;53.50;43.25;;;;;12.76;100.00;101804.59;4987329;28;45178;-81
2022/03/28 04:11:42;;;;;;;;;53.75;42.75;;;;;13.12;100.00;101872.50;4988654;28;45256;-82
2022/03/28 04:14:07;;;;;;;;;56.00;44.25;;;;;12.97;100.00;101858.78;4988304;28;45170;-78
2022/03/28 04:16:34;;;;;;;;;57.50;45.25;;;;;12.70;100.00;101820.38;4989490;28;45022;-83
2022/03/28 04:18:59;;;;;;;;;60.00;43.75;;;;;12.48;100.00;101786.28;4991617;28;45101;-82
2022/03/28 04:21:24;;;;;;;;;60.00;46.00;;;;;12.92;100.00;101860.03;4991282;28;45165;-81
2022/03/28 04:23:50;;;;;;;;;52.50;42.50;;;;;12.96;100.00;101870.69;4991132;28;46092;-81
2022/03/28 04:26:15;;;;;;;;;52.75;42.50;;;;;12.69;100.00;101829.53;4990969;28;45202;-82
2022/03/28 04:28:42;;;;;;;;;62.25;44.00;;;;;12.75;100.00;101843.78;4991535;28;45079;-82
2022/03/28 04:31:07;;;;;;;;;60.75;46.75;;;;;12.84;100.00;101856.88;4990455;28;45181;-82
2022/03/28 04:33:33;;;;;;;;;57.75;45.50;;;;;12.92;100.00;101879.13;4972576;28;47803;-83
2022/03/28 04:35:58;;;;;;;;;57.00;43.75;;;;;12.90;100.00;101878.34;4991645;28;45162;-81
2022/03/28 04:38:25;;;;;;;;;59.75;43.75;;;;;12.89;100.00;101880.22;4990004;28;45346;-81
2022/03/28 04:40:53;;;;;;;;;55.25;42.25;;;;;12.09;100.00;101731.22;4989424;28;45355;-80
2022/03/28 04:43:20;;;;;;;;;59.75;43.50;;;;;12.86;100.00;101879.50;4990639;28;46240;-80
2022/03/28 04:45:46;;;;;;;;;61.00;46.50;;;;;12.37;100.00;101786.91;4990596;28;45154;-77
2022/03/28 04:48:11;;;;;;;;;56.25;40.25;;;;;12.22;100.00;101757.78;4989655;28;45197;-78
2022/03/28 04:50:37;;;;;;;;;51.00;42.50;;;;;12.73;100.00;101843.88;4991260;28;45148;-79
2022/03/28 04:53:02;;;;;;;;;57.25;44.50;;;;;12.84;100.00;101871.41;4990269;28;45248;-81
2022/03/28 04:55:28;;;;;;;;;55.75;44.00;;;;;11.62;100.00;101663.94;4991107;28;45624;-80
2022/03/28 04:57:53;;;;;;;;;48.50;39.50;;;;;12.68;100.00;101838.69;4990629;28;45215;-80
2022/03/28 05:00:19;;;;;;;;;56.00;43.00;;;;;12.28;100.00;101766.47;4990984;28;45183;-78
2022/03/28 05:02:44;;;;;;;;;49.75;43.00;;;;;12.83;100.00;101858.75;4990940;28;45745;-81
2022/03/28 05:05:10;;;;;;;;;54.25;43.00;;;;;12.77;100.00;101844.56;4990686;28;45020;-81
2022/03/28 05:07:36;;;;;;;;;55.00;46.00;;;;;12.81;100.00;101862.53;4990141;28;45228;-74
2022/03/28 05:10:02;;;;;;;;;56.75;44.50;;;;;12.46;100.00;101802.69;4991167;28;45067;-80
2022/03/28 05:12:28;;;;;;;;;52.75;44.50;;;;;12.68;100.00;101846.88;4993740;28;46718;-80
2022/03/28 05:14:55;;;;;;;;;55.75;45.00;;;;;12.38;100.00;101796.81;4991947;28;45055;-75
2022/03/28 05:17:21;;;;;;;;;54.25;43.25;;;;;12.70;100.00;101872.22;4990002;28;45300;-77
2022/03/28 05:19:47;;;;;;;;;58.00;47.00;;;;;12.65;100.00;101857.09;4990943;28;45262;-76
2022/03/28 05:22:12;;;;;;;;;57.25;44.25;;;;;12.65;100.00;101857.97;4990176;28;46085;-77
2022/03/28 05:24:37;;;;;;;;;56.50;42.00;;;;;12.32;100.00;101813.56;4989831;28;45046;-76
2022/03/28 05:27:03;;;;;;;;;54.25;44.25;;;;;12.33;100.00;101805.28;4989383;28;45581;-76
2022/03/28 05:29:28;;;;;;;;;57.00;45.25;;;;;12.62;100.00;101860.88;4990013;28;45130;-76
2022/03/28 05:31:54;;;;;;;;;61.25;45.00;;;;;12.23;100.00;101797.72;4989819;28;46882;-75
2022/03/28 05:34:19;;;;;;;;;49.25;41.25;;;;;12.57;100.00;101857.53;4990063;28;45220;-75
2022/03/28 05:36:45;;;;;;;;;57.75;45.75;;;;;12.44;100.00;101835.53;4990822;28;45275;-80
2022/03/28 05:39:12;;;;;;;;;57.50;43.00;;;;;11.98;100.00;101790.03;4990487;28;44992;-81
2022/03/28 05:41:37;;;;;;;;;56.00;43.00;;;;;12.43;100.00;101855.59;4989202;28;47027;-79
2022/03/28 05:44:03;;;;;;;;;55.50;44.25;;;;;12.28;100.00;101834.66;4990419;28;45441;-80
2022/03/28 05:46:28;;;;;;;;;55.75;44.25;;;;;11.77;100.00;101741.22;4975677;28;45383;-81
2022/03/28 05:48:54;;;;;;;;;59.75;46.00;;;;;12.48;100.00;101859.91;4989792;28;45142;-81
2022/03/28 05:51:20;;;;;;;;;55.50;43.75;;;;;12.47;100.00;101856.31;4990073;28;45267;-79
2022/03/28 05:53:45;;;;;;;;;60.75;45.75;;;;;12.46;100.00;101855.41;4989919;28;44988;-76
2022/03/28 05:56:11;;;;;;;;;58.00;45.25;;;;;12.45;100.00;101852.78;4989976;28;44996;-77
2022/03/28 05:58:36;;;;;;;;;65.25;48.00;;;;;12.38;100.00;101848.66;4987620;28;45249;-81
2022/03/28 06:01:02;;;;;;;;;57.75;47.25;;;;;12.38;100.00;101851.38;4989879;28;45293;-82
2022/03/28 06:03:28;;;;;;;;;58.50;46.00;;;;;11.76;100.00;101741.28;4988471;28;45047;-79
2022/03/28 06:05:53;;;;;;;;;61.00;48.50;;;;;12.38;100.00;101854.09;4990256;28;45299;-78
2022/03/28 06:08:19;;;;;;;;;59.50;47.50;;;;;12.34;100.00;101853.38;4972395;28;45109;-78
2022/03/28 06:10:44;;;;;;;;;58.00;47.00;;;;;12.36;100.00;101853.28;4980584;28;45416;-80
2022/03/28 06:13:10;;;;;;;;;60.75;45.75;;;;;11.64;100.00;101740.13;4990939;28;45036;-77
2022/03/28 06:15:37;;;;;;;;;58.75;47.75;;;;;12.34;100.00;101849.78;4990889;28;45377;-80
2022/03/28 06:18:05;;;;;;;;;44.25;37.75;;;;;11.60;100.00;101723.06;4989979;28;45193;-77
2022/03/28 06:20:32;;;;;;;;;59.50;45.50;;;;;12.39;100.00;101862.19;4980613;28;45874;-77
2022/03/28 06:22:58;;;;;;;;;53.00;42.25;;;;;12.05;100.00;101795.03;4985738;28;45632;-83
2022/03/28 06:25:24;;;;;;;;;57.25;44.75;;;;;12.41;100.00;101853.91;4982470;28;45489;-81
2022/03/28 06:27:49;;;;;;;;;56.00;45.00;;;;;12.40;100.00;101854.88;4989076;28;45129;-80
2022/03/28 06:30:15;;;;;;;;;60.25;47.00;;;;;12.32;100.00;101846.28;4986546;28;46085;-76
2022/03/28 06:32:40;;;;;;;;;57.50;43.75;;;;;12.40;100.00;101853.03;4983354;28;45519;-79
2022/03/28 06:35:07;;;;;;;;;56.25;44.00;;;;;12.28;100.00;101829.19;4986929;28;45195;-79
2022/03/28 06:37:34;;;;;;;;;58.25;47.00;;;;;12.39;100.00;101848.56;4987589;28;45428;-78
2022/03/28 06:39:59;;;;;;;;;57.50;46.00;;;;;12.33;100.00;101840.72;4983593;28;46027;-79
2022/03/28 06:42:25;;;;;;;;;57.00;46.25;;;;;12.00;100.00;101786.25;4986317;28;45350;-82
2022/03/28 06:44:51;;;;;;;;;62.75;48.75;;;;;12.34;100.00;101838.88;4987774;28;45138;-81
2022/03/28 06:47:16;;;;;;;;;61.50;48.00;;;;;12.33;100.00;101837.13;4989358;28;45165;-80
2022/03/28 06:49:42;;;;;;;;;53.75;41.75;;;;;11.29;100.00;101665.84;4988499;28;45672;-82
2022/03/28 06:52:08;;;;;;;;;60.00;48.00;;;;;10.69;100.00;101553.97;4989629;28;45369;-78
2022/03/28 06:54:35;;;;;;;;;60.00;46.25;;;;;12.36;100.00;101845.97;4970144;28;45376;-82
2022/03/28 06:57:02;;;;;;;;;61.00;48.50;;;;;11.61;100.00;101721.25;4989396;28;45487;-80
2022/03/28 06:59:29;;;;;;;;;56.25;43.75;;;;;11.86;100.00;101764.34;4985944;28;45268;-80
2022/03/28 07:01:57;;;;;;;;;62.00;48.75;;;;;12.38;100.00;101844.06;4987223;28;45202;-80
2022/03/28 07:04:24;;;;;;;;;62.25;49.25;;;;;11.50;100.00;101686.41;4968765;28;45143;-84
2022/03/28 07:06:50;;;;;;;;;57.75;45.25;;;;;12.41;100.00;101837.53;4986277;28;45115;-77
2022/03/28 07:09:15;;;;;;;;;67.75;50.00;;;;;11.68;100.00;101714.47;4983034;28;45399;-79
2022/03/28 07:11:40;;;;;;;;;68.25;50.25;;;;;12.04;100.00;101774.22;4986669;28;45177;-78
2022/03/28 07:14:07;;;;;;;;;62.25;49.00;;;;;11.99;100.00;101762.69;4985320;28;45210;-77
2022/03/28 07:16:32;;;;;;;;;61.25;48.00;;;;;11.67;100.00;101713.59;4989572;28;45240;-77
2022/03/28 07:18:58;;;;;;;;;59.50;48.00;;;;;11.95;100.00;101755.66;4972040;28;46379;-77
2022/03/28 07:21:25;;;;;;;;;64.75;47.50;;;;;12.28;100.00;101811.97;4978135;28;45640;-79
2022/03/28 07:23:56;;;;;;;;;58.25;46.75;;;;;12.44;100.00;101829.19;4991970;28;45085;-76
2022/03/28 07:26:22;;;;;;;;;62.00;46.50;;;;;12.48;100.00;101827.19;4994392;28;45092;-78
2022/03/28 07:28:47;;;;;;;;;62.00;48.25;;;;;11.96;100.00;101741.06;4996344;28;45272;-79
2022/03/28 07:31:13;;;;;;;;;67.00;47.50;;;;;11.91;100.00;101726.81;4983422;28;45580;-78
2022/03/28 07:33:39;;;;;;;;;60.75;48.25;;;;;12.50;100.00;101833.41;4989372;28;45015;-77
2022/03/28 07:36:06;;;;;;;;;60.50;46.25;;;;;12.51;100.00;101838.78;4971451;28;45197;-77
2022/03/28 07:38:32;;;;;;;;;62.50;47.00;;;;;12.52;100.00;101834.19;4986900;28;47305;-76
2022/03/28 07:40:57;;;;;;;;;71.25;48.50;;;;;12.54;100.00;101830.44;4974411;28;46533;-77
2022/03/28 07:43:23;;;;;;;;;62.75;48.75;;;;;11.26;100.00;101620.63;4987896;28;45314;-77
2022/03/28 07:45:50;;;;;;;;;61.25;49.25;;;;;12.57;100.00;101830.25;4985447;28;45244;-77
2022/03/28 07:48:16;;;;;;;;;62.25;48.75;;;;;12.59;100.00;101820.13;4977027;28;45469;-82
2022/03/28 07:50:41;;;;;;;;;62.25;48.50;;;;;12.59;100.00;101820.13;4984988;28;45051;-75
2022/03/28 07:53:07;;;;;;;;;66.75;50.75;;;;;11.43;100.00;101623.25;4987124;28;45026;-79
2022/03/28 07:55:33;;;;;;;;;65.75;48.25;;;;;12.65;100.00;101819.75;4986679;28;45070;-77
2022/03/28 07:58:01;;;;;;;;;62.50;48.00;;;;;12.66;100.00;101823.34;4972476;28;45335;-78
2022/03/28 08:00:29;;;;;;;;;65.00;51.75;;;;;12.70;100.00;101823.09;4984497;28;45172;-76
2022/03/28 08:02:55;;;;;;;;;41.00;34.75;;;;;12.59;100.00;101798.31;4980001;28;45419;-74
2022/03/28 08:05:21;;;;;;;;;65.00;50.00;;;;;12.56;100.00;101789.41;4986476;28;45025;-74
2022/03/28 08:07:49;;;;;;;;;65.25;50.75;;;;;12.51;100.00;101773.31;4984820;28;45636;-74
2022/03/28 08:10:14;;;;;;;;;64.00;49.50;;;;;12.50;100.00;101771.56;4985704;28;45171;-74
2022/03/28 08:12:42;;;;;;;;;64.75;49.75;;;;;12.40;100.00;101748.53;4983371;28;45146;-74
2022/03/28 08:15:08;;;;;;;;;63.75;50.00;;;;;12.85;100.00;101832.22;4982431;28;45123;-74
2022/03/28 08:17:35;;;;;;;;;67.25;51.00;;;;;12.90;100.00;101821.03;4985810;28;45855;-74
2022/03/28 08:20:01;;;;;;;;;64.75;50.00;;;;;12.60;100.00;101764.59;4986548;28;45093;-76
2022/03/28 08:22:26;;;;;;;;;59.25;46.00;;;;;12.93;100.00;101818.13;4973498;28;45357;-76
2022/03/28 08:24:51;;;;;;;;;61.50;49.75;;;;;12.56;100.00;101749.38;4982332;28;45331;-74
2022/03/28 08:27:17;;;;;;;;;66.50;48.25;;;;;12.97;100.00;101811.50;4986387;28;46299;-75
2022/03/28 08:29:42;;;;;;;;;66.50;51.75;;;;;13.03;100.00;101821.16;4980540;28;45779;-74
2022/03/28 08:32:09;;;;;;;;;68.25;53.25;;;;;12.79;100.00;101769.84;4965381;28;45411;-74
2022/03/28 08:34:34;;;;;;;;;67.00;49.00;;;;;13.08;100.00;101811.75;4985961;28;45082;-74
2022/03/28 08:37:00;;;;;;;;;59.25;47.50;;;;;12.52;100.00;101706.91;4986098;28;45690;-75
2022/03/28 08:39:25;;;;;;;;;61.00;49.00;;;;;13.17;100.00;101808.44;4986466;28;45076;-74
2022/03/28 08:41:51;;;;;;;;;63.50;49.00;;;;;13.19;100.00;101806.50;4984933;28;45344;-75
2022/03/28 08:44:20;;;;;;;;;69.00;52.75;;;;;12.92;100.00;101754.44;4942870;28;1143361;-75
2022/03/28 08:46:48;;;;;;;;;60.25;49.00;;;;;12.97;100.00;101763.25;4987333;28;45572;-74
2022/03/28 08:49:14;;;;;;;;;62.00;48.50;;;;;13.29;100.00;101803.25;4986560;28;45130;-75
2022/03/28 08:51:39;;;;;;;;;68.25;49.50;;;;;12.92;100.00;101724.44;4985105;28;45471;-74
2022/03/28 08:54:07;;;;;;;;;63.75;49.25;;;;;12.66;100.00;101681.50;4986071;28;45476;-78
2022/03/28 08:56:32;;;;;;;;;65.25;50.00;;;;;12.82;100.00;101695.06;4985032;28;45571;-78
2022/03/28 08:58:58;;;;;;;;;71.00;53.00;;;;;13.16;100.00;101749.34;4986960;28;46174;-79
2022/03/28 09:01:24;;;;;;;;;69.50;52.25;;;;;13.49;100.00;101794.72;4986566;28;45282;-78
2022/03/28 09:03:49;;;;;;;;;60.00;45.75;;;;;13.53;100.00;101787.19;4990561;28;45194;-78
2022/03/28 09:06:37;;;;;;;;;68.00;50.00;;;;;13.58;100.00;101785.03;4989954;28;45098;-75
2022/03/28 09:09:28;;;;;;;;;62.75;47.75;;;;;13.62;100.00;101789.34;4989746;28;45250;-77
2022/03/28 09:11:56;;;;;;;;;60.00;48.25;;;;;13.60;100.00;101774.91;4972492;28;45280;-76
2022/03/28 09:14:28;;;;;;;;;56.75;46.25;;;;;13.73;100.00;101790.41;4990725;28;45418;-77
2022/03/28 09:17:06;;;;;;;;;62.25;47.00;;;;;13.77;100.00;101788.34;4990437;28;45059;-77
2022/03/28 09:19:41;;;;;;;;;64.25;49.50;;;;;13.82;100.00;101788.94;4990792;28;45270;-77
2022/03/28 09:22:12;;;;;;;;;64.50;50.25;;;;;13.56;100.00;101733.22;4989139;28;45174;-77
2022/03/28 09:24:37;;;;;;;;;60.75;45.25;;;;;13.62;100.00;101729.22;4990179;28;45141;-77
2022/03/28 09:27:15;;;;;;;;;55.25;45.25;;;;;13.81;100.00;101751.66;4972095;28;47639;-77
2022/03/28 09:30:14;;;;;;;;;57.00;45.75;;;;;13.94;100.00;101765.44;4989001;28;45679;-79
2022/03/28 09:32:41;;;;;;;;;58.50;47.50;;;;;12.66;100.00;101548.69;4986324;28;45216;-78
2022/03/28 09:35:19;;;;;;;;;64.25;47.75;;;;;14.11;100.00;101778.84;4989475;28;45290;-78
2022/03/28 09:38:07;;;;;;;;;55.25;46.00;;;;;14.15;100.00;101774.06;4987745;28;45330;-80
2022/03/28 09:40:51;;;;;;;;;60.00;45.75;;;;;14.12;100.00;101755.13;4986127;28;45303;-79
2022/03/28 09:43:25;;;;;;;;;57.50;45.50;;;;;14.24;100.00;101771.63;4986426;28;45301;-78
2022/03/28 09:45:55;;;;;;;;;60.50;47.25;;;;;14.14;100.00;101742.22;4989589;28;45311;-74
2022/03/28 09:48:24;;;;;;;;;61.50;46.50;;;;;14.32;100.00;101762.00;4989647;28;46261;-75
2022/03/28 09:51:01;;;;;;;;;55.25;45.00;;;;;13.48;100.00;101612.63;4989211;28;45312;-74
2022/03/28 09:53:36;;;;;;;;;58.25;46.00;;;;;14.11;100.00;101704.16;4989524;28;45114;-79
2022/03/28 09:56:23;;;;;;;;;56.25;42.50;;;;;14.49;100.00;101753.56;4989325;28;45229;-77
2022/03/28 09:58:58;;;;;;;;;55.25;45.00;;;;;14.10;100.00;101695.06;4989705;28;45728;-80
2022/03/28 10:01:26;;;;;;;;;59.50;45.25;;;;;14.57;100.00;101751.22;4989697;28;45095;-81
2022/03/28 10:03:54;;;;;;;;;55.50;44.75;;;;;14.17;100.00;101673.66;4989460;28;45256;-81
2022/03/28 10:06:23;;;;;;;;;56.25;45.25;;;;;14.64;100.00;101752.53;4991081;28;45158;-80
2022/03/28 10:08:50;;;;;;;;;54.25;42.25;;;;;14.25;100.00;101668.56;4989394;28;45802;-79
2022/03/28 10:11:16;;;;;;;;;55.00;43.00;;;;;14.43;100.00;101693.75;4989331;28;45308;-81
2022/03/28 10:13:42;;;;;;;;;50.75;39.75;;;;;14.59;100.00;101719.13;4990151;28;45194;-80
2022/03/28 10:16:09;;;;;;;;;53.25;43.25;;;;;14.78;100.00;101735.16;4989923;28;45324;-79
2022/03/28 10:18:39;;;;;;;;;55.00;42.75;;;;;14.83;100.00;101738.47;4989416;28;46014;-78
2022/03/28 10:21:31;;;;;;;;;50.25;41.50;;;;;14.89;100.00;101731.69;4989380;28;44995;-77
2022/03/28 10:24:11;;;;;;;;;58.75;43.25;;;;;14.95;100.00;101720.28;4983945;28;45198;-80
2022/03/28 10:26:40;;;;;;;;;58.50;44.50;;;;;15.02;100.00;101729.84;4990589;28;45358;-79
2022/03/28 10:29:13;;;;;;;;;51.25;42.00;;;;;15.08;100.00;101725.81;4989043;28;46727;-77
2022/03/28 10:32:09;;;;;;;;;52.75;39.25;;;;;15.11;100.00;101714.66;4992639;28;45023;-75
2022/03/28 10:34:52;;;;;;;;;52.50;42.50;;;;;15.15;100.00;101706.06;4965194;28;45211;-78
2022/03/28 10:37:31;;;;;;;;;52.75;41.75;;;;;15.22;100.00;101704.66;4994635;28;45004;-78
2022/03/28 10:40:15;;;;;;;;;48.75;40.00;;;;;15.27;100.00;101698.88;4995243;28;45548;-75
2022/03/28 10:43:13;;;;;;;;;48.75;41.25;;;;;15.32;100.00;101689.31;4994940;28;44881;-76
2022/03/28 10:45:44;;;;;;;;;43.25;36.25;;;;;15.31;100.00;101668.41;4991228;28;45170;-78
2022/03/28 10:48:11;;;;;;;;;47.50;37.50;;;;;15.15;100.00;101637.59;4992361;28;45005;-80
2022/03/28 10:50:51;;;;;;;;;43.75;37.00;;;;;15.47;100.00;101684.59;4991391;28;45240;-80
2022/03/28 10:53:37;;;;;;;;;46.00;37.00;;;;;15.51;100.00;101668.78;4989909;28;45254;-78
2022/03/28 10:56:17;;;;;;;;;46.25;36.00;;;;;15.53;100.00;101678.66;4995484;28;45191;-75
2022/03/28 10:58:50;;;;;;;;;47.50;37.00;;;;;15.54;100.00;101674.94;4996432;28;45221;-81
2022/03/28 11:01:20;;;;;;;;;45.00;34.50;;;;;15.55;100.00;101665.72;4996397;28;45600;-76
2022/03/28 11:03:53;;;;;;;;;42.25;36.00;;;;;15.58;100.00;101667.38;4994656;28;45161;-77